Time,TemperatureF,DewpointF,PressureIn,WindDirection,WindDirectionDegrees,WindSpeedMPH,WindSpeedGustMPH,Humidity,HourlyPrecipIn,Conditions,Clouds,dailyrainin,SoftwareType,DateUTC
2013-03-13 00:00:00,32.9,28.9,30.07,WSW,248,4.0,13.0,85,0.00,,SKC,0.03,VWS V14.01,2013-03-13 04:00:00,
2013-03-13 00:05:00,32.9,28.9,30.07,WSW,257,3.0,13.0,85,0.00,,SKC,0.00,VWS V14.01,2013-03-13 04:05:00,
2013-03-13 00:10:00,32.9,28.6,30.07,WNW,302,5.0,14.0,84,0.00,,SKC,0.00,VWS V14.01,2013-03-13 04:10:00,
2013-03-13 00:15:00,32.9,28.6,30.07,WSW,256,10.0,14.0,84,0.00,,SKC,0.00,VWS V14.01,2013-03-13 04:15:00,
2013-03-13 00:20:00,32.9,28.0,30.07,West,259,7.0,15.0,82,0.00,,SKC,0.00,VWS V14.01,2013-03-13 04:20:00,
2013-03-13 00:26:00,32.9,27.7,30.07,West,262,11.0,21.0,81,0.00,,SKC,0.00,VWS V14.01,2013-03-13 04:26:00,
2013-03-13 00:31:00,32.9,27.4,30.08,WSW,248,18.0,18.0,80,0.00,,SKC,0.00,VWS V14.01,2013-03-13 04:31:00,
2013-03-13 00:36:00,32.7,27.2,30.08,West,271,4.0,18.0,80,0.00,,SKC,0.00,VWS V14.01,2013-03-13 04:36:00,
2013-03-13 00:41:00,32.4,26.9,30.08,West,269,4.0,20.0,80,0.00,,SKC,0.00,VWS V14.01,2013-03-13 04:41:00,
2013-03-13 00:46:00,32.2,26.4,30.08,West,271,4.0,20.0,79,0.00,,SKC,0.00,VWS V14.01,2013-03-13 04:46:00,
2013-03-13 00:51:00,32.1,26.3,30.08,West,276,4.0,20.0,79,0.00,,SKC,0.00,VWS V14.01,2013-03-13 04:51:00,
2013-03-13 00:56:00,31.9,25.8,30.08,West,272,4.0,20.0,78,0.00,,SKC,0.00,VWS V14.01,2013-03-13 04:56:00,
2013-03-13 01:01:00,31.6,24.9,30.07,WNW,297,2.0,11.0,76,0.00,,SKC,0.00,VWS V14.01,2013-03-13 05:01:00,
2013-03-13 01:07:00,31.5,24.5,30.07,West,280,2.0,16.0,75,0.00,,SKC,0.00,VWS V14.01,2013-03-13 05:07:00,
2013-03-13 01:12:00,31.5,24.2,30.07,WNW,291,3.0,16.0,74,0.00,,SKC,0.00,VWS V14.01,2013-03-13 05:12:00,
2013-03-13 01:17:00,31.5,24.2,30.07,WSW,252,9.0,16.0,74,0.00,,SKC,0.00,VWS V14.01,2013-03-13 05:17:00,
2013-03-13 01:22:00,31.3,23.3,30.07,South,188,3.0,16.0,72,0.00,,SKC,0.00,VWS V14.01,2013-03-13 05:22:00,
2013-03-13 01:27:00,31.2,23.2,30.07,WSW,255,3.0,16.0,72,0.00,,SKC,0.00,VWS V14.01,2013-03-13 05:27:00,
2013-03-13 01:32:00,31.2,23.2,30.07,WSW,247,5.0,7.0,72,0.00,,SKC,0.00,VWS V14.01,2013-03-13 05:32:00,
2013-03-13 01:37:00,31.2,23.2,30.07,West,281,3.0,7.0,72,0.00,,SKC,0.00,VWS V14.01,2013-03-13 05:37:00,
2013-03-13 01:43:00,31.0,23.0,30.07,WSW,255,6.0,15.0,72,0.00,,SKC,0.00,VWS V14.01,2013-03-13 05:43:00,
2013-03-13 01:48:00,31.0,23.0,30.07,WNW,283,4.0,15.0,72,0.00,,SKC,0.00,VWS V14.01,2013-03-13 05:48:00,
2013-03-13 01:53:00,31.0,23.0,30.07,SW,229,4.0,15.0,72,0.00,,SKC,0.00,VWS V14.01,2013-03-13 05:53:00,
2013-03-13 01:58:00,30.9,23.3,30.07,WNW,288,2.0,15.0,73,0.00,,SKC,0.00,VWS V14.01,2013-03-13 05:58:00,
2013-03-13 02:03:00,30.9,23.3,30.07,WSW,250,4.0,15.0,73,0.00,,SKC,0.00,VWS V14.01,2013-03-13 06:03:00,
2013-03-13 02:08:00,30.7,23.4,30.07,WSW,243,2.0,15.0,74,0.00,,SKC,0.00,VWS V14.01,2013-03-13 06:08:00,
2013-03-13 02:13:00,30.6,23.6,30.07,WSW,243,9.0,15.0,75,0.00,,SKC,0.00,VWS V14.01,2013-03-13 06:13:00,
2013-03-13 02:18:00,30.6,24.0,30.07,West,278,2.0,15.0,76,0.00,,SKC,0.00,VWS V14.01,2013-03-13 06:18:00,
2013-03-13 02:23:00,30.4,24.1,30.07,WNW,292,1.0,15.0,77,0.00,,SKC,0.00,VWS V14.01,2013-03-13 06:23:00,
2013-03-13 02:28:00,30.4,24.1,30.07,WSW,243,0.0,15.0,77,0.00,,SKC,0.00,VWS V14.01,2013-03-13 06:28:00,
2013-03-13 02:33:00,30.3,24.3,30.07,WSW,258,7.0,13.0,78,0.00,,SKC,0.00,VWS V14.01,2013-03-13 06:33:00,
2013-03-13 02:38:00,30.1,24.1,30.07,West,265,4.0,13.0,78,0.00,,SKC,0.00,VWS V14.01,2013-03-13 06:38:00,
2013-03-13 02:43:00,30.1,24.1,30.07,West,271,9.0,13.0,78,0.00,,SKC,0.00,VWS V14.01,2013-03-13 06:43:00,
2013-03-13 02:48:00,30.1,24.4,30.07,SW,235,5.0,16.0,79,0.00,,SKC,0.00,VWS V14.01,2013-03-13 06:48:00,
2013-03-13 02:53:00,30.0,24.3,30.07,WSW,255,9.0,16.0,79,0.00,,SKC,0.00,VWS V14.01,2013-03-13 06:53:00,
2013-03-13 02:58:00,30.0,24.6,30.07,WNW,289,3.0,16.0,80,0.00,,SKC,0.00,VWS V14.01,2013-03-13 06:58:00,
2013-03-13 03:03:00,29.8,24.7,30.07,WSW,258,0.0,13.0,81,0.00,,SKC,0.00,VWS V14.01,2013-03-13 07:03:00,
2013-03-13 03:08:00,29.7,24.6,30.07,West,278,4.0,16.0,81,0.00,,SKC,0.00,VWS V14.01,2013-03-13 07:08:00,
2013-03-13 03:13:00,29.5,24.1,30.07,WSW,249,15.0,16.0,80,0.00,,SKC,0.00,VWS V14.01,2013-03-13 07:13:00,
2013-03-13 03:18:00,29.4,23.7,30.07,WNW,291,5.0,17.0,79,0.00,,SKC,0.00,VWS V14.01,2013-03-13 07:18:00,
2013-03-13 03:23:00,29.3,22.7,30.07,SW,236,9.0,17.0,76,0.00,,SKC,0.00,VWS V14.01,2013-03-13 07:23:00,
2013-03-13 03:28:00,29.1,22.2,30.07,West,274,11.0,17.0,75,0.00,,SKC,0.00,VWS V14.01,2013-03-13 07:28:00,
2013-03-13 03:33:00,29.0,21.4,30.08,SW,231,10.0,22.0,73,0.00,,SKC,0.00,VWS V14.01,2013-03-13 07:33:00,
2013-03-13 03:38:00,28.8,21.2,30.08,West,269,6.0,22.0,73,0.00,,SKC,0.00,VWS V14.01,2013-03-13 07:38:00,
2013-03-13 03:44:00,28.7,21.5,30.08,WSW,258,6.0,22.0,74,0.00,,SKC,0.00,VWS V14.01,2013-03-13 07:44:00,
2013-03-13 03:49:00,28.5,21.3,30.08,WSW,246,2.0,22.0,74,0.00,,SKC,0.00,VWS V14.01,2013-03-13 07:49:00,
2013-03-13 03:54:00,28.4,21.2,30.08,West,264,2.0,22.0,74,0.00,,SKC,0.00,VWS V14.01,2013-03-13 07:54:00,
2013-03-13 03:59:00,28.4,21.2,30.08,West,262,4.0,22.0,74,0.00,,SKC,0.00,VWS V14.01,2013-03-13 07:59:00,
2013-03-13 04:04:00,28.1,20.2,30.08,WSW,256,9.0,24.0,72,0.00,,SKC,0.00,VWS V14.01,2013-03-13 08:04:00,
2013-03-13 04:09:00,28.1,19.9,30.08,West,271,2.0,24.0,71,0.00,,SKC,0.00,VWS V14.01,2013-03-13 08:09:00,
2013-03-13 04:14:00,28.1,19.9,30.08,WSW,258,2.0,24.0,71,0.00,,SKC,0.00,VWS V14.01,2013-03-13 08:14:00,
2013-03-13 04:19:00,27.9,19.1,30.08,West,264,7.0,24.0,69,0.00,,SKC,0.00,VWS V14.01,2013-03-13 08:19:00,
2013-03-13 04:24:00,27.9,19.1,30.08,West,260,4.0,24.0,69,0.00,,SKC,0.00,VWS V14.01,2013-03-13 08:24:00,
2013-03-13 04:29:00,27.8,19.0,30.08,WSW,248,10.0,24.0,69,0.00,,SKC,0.00,VWS V14.01,2013-03-13 08:29:00,
2013-03-13 04:34:00,27.8,19.0,30.08,WSW,246,5.0,14.0,69,0.00,,SKC,0.00,VWS V14.01,2013-03-13 08:34:00,
2013-03-13 04:40:00,27.6,18.8,30.08,West,273,7.0,18.0,69,0.00,,SKC,0.00,VWS V14.01,2013-03-13 08:40:00,
2013-03-13 04:45:00,27.5,19.0,30.08,NW,304,4.0,18.0,70,0.00,,SKC,0.00,VWS V14.01,2013-03-13 08:45:00,
2013-03-13 04:50:00,27.3,19.5,30.08,WNW,286,3.0,18.0,72,0.00,,SKC,0.00,VWS V14.01,2013-03-13 08:50:00,
2013-03-13 04:55:00,27.2,19.7,30.08,WNW,297,4.0,18.0,73,0.00,,SKC,0.00,VWS V14.01,2013-03-13 08:55:00,
2013-03-13 05:00:00,27.0,19.8,30.09,WSW,258,2.0,18.0,74,0.00,,SKC,0.00,VWS V14.01,2013-03-13 09:00:00,
2013-03-13 05:05:00,26.9,20.0,30.09,West,259,5.0,16.0,75,0.00,,SKC,0.00,VWS V14.01,2013-03-13 09:05:00,
2013-03-13 05:10:00,26.6,20.4,30.09,West,267,3.0,16.0,77,0.00,,SKC,0.00,VWS V14.01,2013-03-13 09:10:00,
2013-03-13 05:15:00,26.3,19.8,30.09,WSW,257,3.0,16.0,76,0.00,,SKC,0.00,VWS V14.01,2013-03-13 09:15:00,
2013-03-13 05:20:00,26.1,19.6,30.09,WNW,290,17.0,17.0,76,0.00,,SKC,0.00,VWS V14.01,2013-03-13 09:20:00,
2013-03-13 05:25:00,26.0,19.5,30.09,West,268,7.0,18.0,76,0.00,,SKC,0.00,VWS V14.01,2013-03-13 09:25:00,
2013-03-13 05:30:00,26.0,19.5,30.10,WNW,299,5.0,5.0,76,0.00,,SKC,0.00,VWS V14.01,2013-03-13 09:30:00,
2013-03-13 05:35:00,26.0,19.5,30.10,WSW,257,5.0,12.0,76,0.00,,SKC,0.00,VWS V14.01,2013-03-13 09:35:00,
2013-03-13 05:41:00,26.0,19.5,30.10,West,266,4.0,12.0,76,0.00,,SKC,0.00,VWS V14.01,2013-03-13 09:41:00,
2013-03-13 05:46:00,26.0,19.5,30.10,WSW,257,2.0,14.0,76,0.00,,SKC,0.00,VWS V14.01,2013-03-13 09:46:00,
2013-03-13 05:51:00,26.0,19.5,30.10,West,278,10.0,19.0,76,0.00,,SKC,0.00,VWS V14.01,2013-03-13 09:51:00,
2013-03-13 05:56:00,26.0,19.8,30.10,WSW,242,6.0,19.0,77,0.00,,SKC,0.00,VWS V14.01,2013-03-13 09:56:00,
2013-03-13 06:01:00,26.0,19.8,30.11,WNW,285,4.0,14.0,77,0.00,,SKC,0.00,VWS V14.01,2013-03-13 10:01:00,
2013-03-13 06:06:00,26.0,19.8,30.11,West,266,6.0,14.0,77,0.00,,SKC,0.00,VWS V14.01,2013-03-13 10:06:00,
2013-03-13 06:11:00,26.0,19.2,30.11,SW,222,5.0,17.0,75,0.00,,SKC,0.00,VWS V14.01,2013-03-13 10:11:00,
2013-03-13 06:16:00,26.0,19.2,30.12,West,262,16.0,17.0,75,0.00,,SKC,0.00,VWS V14.01,2013-03-13 10:16:00,
2013-03-13 06:22:00,26.0,18.9,30.12,WSW,244,9.0,17.0,74,0.00,,SKC,0.00,VWS V14.01,2013-03-13 10:22:00,
2013-03-13 06:27:00,26.1,18.6,30.12,West,271,4.0,17.0,73,0.00,,SKC,0.00,VWS V14.01,2013-03-13 10:27:00,
2013-03-13 06:32:00,26.0,18.5,30.12,WNW,298,4.0,9.0,73,0.00,,SKC,0.00,VWS V14.01,2013-03-13 10:32:00,
2013-03-13 06:37:00,26.0,19.2,30.12,NW,307,3.0,12.0,75,0.00,,SKC,0.00,VWS V14.01,2013-03-13 10:37:00,
2013-03-13 06:42:00,26.0,19.2,30.12,West,274,3.0,15.0,75,0.00,,SKC,0.00,VWS V14.01,2013-03-13 10:42:00,
2013-03-13 06:47:00,26.0,19.2,30.12,WSW,258,3.0,17.0,75,0.00,,SKC,0.00,VWS V14.01,2013-03-13 10:47:00,
2013-03-13 06:52:00,26.0,19.5,30.12,West,271,4.0,17.0,76,0.00,,SKC,0.00,VWS V14.01,2013-03-13 10:52:00,
2013-03-13 06:57:00,26.0,19.5,30.12,WNW,284,2.0,17.0,76,0.00,,SKC,0.00,VWS V14.01,2013-03-13 10:57:00,
2013-03-13 07:02:00,26.0,19.8,30.13,West,271,7.0,11.0,77,0.00,,SKC,0.00,VWS V14.01,2013-03-13 11:02:00,
2013-03-13 07:07:00,26.0,20.1,30.13,WSW,257,4.0,11.0,78,0.00,,SKC,0.00,VWS V14.01,2013-03-13 11:07:00,
2013-03-13 07:12:00,26.0,20.4,30.13,WNW,303,4.0,14.0,79,0.00,,SKC,0.00,VWS V14.01,2013-03-13 11:12:00,
2013-03-13 07:17:00,25.8,20.2,30.14,West,277,7.0,14.0,79,0.00,,SKC,0.00,VWS V14.01,2013-03-13 11:17:00,
2013-03-13 07:23:00,25.8,20.2,30.14,West,268,4.0,14.0,79,0.00,,SKC,0.00,VWS V14.01,2013-03-13 11:23:00,
2013-03-13 07:28:00,25.8,20.2,30.14,WSW,250,3.0,14.0,79,0.00,,SKC,0.00,VWS V14.01,2013-03-13 11:28:00,
2013-03-13 07:33:00,25.8,20.2,30.14,West,270,5.0,15.0,79,0.00,,SKC,0.00,VWS V14.01,2013-03-13 11:33:00,
2013-03-13 07:38:00,25.8,20.2,30.14,WSW,240,3.0,15.0,79,0.00,,SKC,0.00,VWS V14.01,2013-03-13 11:38:00,
2013-03-13 07:43:00,25.8,20.2,30.14,West,270,3.0,15.0,79,0.00,,SKC,0.00,VWS V14.01,2013-03-13 11:43:00,
2013-03-13 07:48:00,26.0,20.4,30.14,West,266,3.0,15.0,79,0.00,,SKC,0.00,VWS V14.01,2013-03-13 11:48:00,
2013-03-13 07:53:00,25.8,20.2,30.14,SW,231,5.0,16.0,79,0.00,,SKC,0.00,VWS V14.01,2013-03-13 11:53:00,
2013-03-13 07:58:00,26.0,20.4,30.14,West,260,2.0,16.0,79,0.00,,SKC,0.00,VWS V14.01,2013-03-13 11:58:00,
2013-03-13 08:03:00,26.0,20.4,30.14,WSW,255,3.0,10.0,79,0.00,,SKC,0.00,VWS V14.01,2013-03-13 12:03:00,
2013-03-13 08:08:00,25.8,19.9,30.14,West,271,7.0,14.0,78,0.00,,SKC,0.00,VWS V14.01,2013-03-13 12:08:00,
2013-03-13 08:13:00,25.8,20.2,30.14,West,267,3.0,14.0,79,0.00,,SKC,0.00,VWS V14.01,2013-03-13 12:13:00,
2013-03-13 08:18:00,25.7,20.4,30.16,West,278,1.0,14.0,80,0.00,,SKC,0.00,VWS V14.01,2013-03-13 12:18:00,
2013-03-13 08:23:00,25.6,20.6,30.16,WNW,293,7.0,14.0,81,0.00,,SKC,0.00,VWS V14.01,2013-03-13 12:23:00,
2013-03-13 08:28:00,25.6,20.6,30.16,West,281,2.0,14.0,81,0.00,,SKC,0.00,VWS V14.01,2013-03-13 12:28:00,
2013-03-13 08:33:00,25.6,20.9,30.16,WNW,285,3.0,11.0,82,0.00,,SKC,0.00,VWS V14.01,2013-03-13 12:33:00,
2013-03-13 08:38:00,25.6,20.9,30.16,WSW,252,1.0,11.0,82,0.00,,SKC,0.00,VWS V14.01,2013-03-13 12:38:00,
2013-03-13 08:44:00,25.7,21.0,30.16,West,276,3.0,11.0,82,0.00,,SKC,0.00,VWS V14.01,2013-03-13 12:44:00,
2013-03-13 08:49:00,25.7,21.0,30.16,WNW,299,5.0,16.0,82,0.00,,SKC,0.00,VWS V14.01,2013-03-13 12:49:00,
2013-03-13 08:54:00,25.7,21.0,30.16,West,281,2.0,16.0,82,0.00,,SKC,0.00,VWS V14.01,2013-03-13 12:54:00,
2013-03-13 08:59:00,25.8,21.1,30.16,WNW,286,9.0,16.0,82,0.00,,SKC,0.00,VWS V14.01,2013-03-13 12:59:00,
2013-03-13 09:04:00,25.8,20.8,30.17,WSW,255,3.0,12.0,81,0.00,,SKC,0.00,VWS V14.01,2013-03-13 13:04:00,
2013-03-13 09:09:00,25.8,21.1,30.17,West,277,11.0,12.0,82,0.00,,SKC,0.00,VWS V14.01,2013-03-13 13:09:00,
2013-03-13 09:14:00,25.8,21.1,30.18,West,264,2.0,12.0,82,0.00,,SKC,0.00,VWS V14.01,2013-03-13 13:14:00,
2013-03-13 09:19:00,25.8,21.1,30.18,WSW,256,3.0,12.0,82,0.00,,SKC,0.00,VWS V14.01,2013-03-13 13:19:00,
2013-03-13 09:24:00,25.8,21.4,30.18,WSW,257,3.0,12.0,83,0.00,,SKC,0.00,VWS V14.01,2013-03-13 13:24:00,
2013-03-13 09:29:00,25.7,21.3,30.18,West,281,10.0,16.0,83,0.00,,SKC,0.00,VWS V14.01,2013-03-13 13:29:00,
2013-03-13 09:34:00,25.7,21.5,30.18,WSW,252,6.0,7.0,84,0.00,,SKC,0.00,VWS V14.01,2013-03-13 13:34:00,
2013-03-13 09:39:00,25.7,21.5,30.18,West,273,2.0,12.0,84,0.00,,SKC,0.00,VWS V14.01,2013-03-13 13:39:00,
2013-03-13 09:45:00,25.6,21.5,30.19,WNW,294,1.0,12.0,84,0.00,,SKC,0.00,VWS V14.01,2013-03-13 13:45:00,
2013-03-13 09:50:00,25.8,21.6,30.19,West,271,14.0,14.0,84,0.00,,SKC,0.00,VWS V14.01,2013-03-13 13:50:00,
2013-03-13 09:55:00,26.0,21.6,30.19,WNW,284,8.0,14.0,83,0.00,,SKC,0.00,VWS V14.01,2013-03-13 13:55:00,
2013-03-13 10:00:00,26.4,21.4,30.20,NW,306,2.0,14.0,81,0.00,,SKC,0.00,VWS V14.01,2013-03-13 14:00:00,
2013-03-13 10:05:00,26.6,21.3,30.20,WNW,287,8.0,12.0,80,0.00,,SKC,0.00,VWS V14.01,2013-03-13 14:05:00,
2013-03-13 10:10:00,26.6,21.0,30.20,SW,219,11.0,16.0,79,0.00,,SKC,0.00,VWS V14.01,2013-03-13 14:10:00,
2013-03-13 10:15:00,26.6,21.0,30.20,WNW,295,4.0,16.0,79,0.00,,SKC,0.00,VWS V14.01,2013-03-13 14:15:00,
2013-03-13 10:20:00,26.7,21.1,30.20,NW,305,8.0,18.0,79,0.00,,SKC,0.00,VWS V14.01,2013-03-13 14:20:00,
2013-03-13 10:25:00,26.7,20.5,30.20,West,281,3.0,18.0,77,0.00,,SKC,0.00,VWS V14.01,2013-03-13 14:25:00,
2013-03-13 10:30:00,26.7,19.9,30.21,West,266,3.0,11.0,75,0.00,,SKC,0.00,VWS V14.01,2013-03-13 14:30:00,
2013-03-13 10:35:00,27.3,20.1,30.21,West,276,10.0,14.0,74,0.00,,SKC,0.00,VWS V14.01,2013-03-13 14:35:00,
2013-03-13 10:40:00,27.6,20.4,30.21,SW,233,10.0,14.0,74,0.00,,SKC,0.00,VWS V14.01,2013-03-13 14:40:00,
2013-03-13 10:45:00,27.3,20.1,30.21,WSW,248,4.0,19.0,74,0.00,,SKC,0.00,VWS V14.01,2013-03-13 14:45:00,
2013-03-13 10:50:00,27.2,20.3,30.21,WSW,255,6.0,19.0,75,0.00,,SKC,0.00,VWS V14.01,2013-03-13 14:50:00,
2013-03-13 10:55:00,26.7,20.8,30.21,WSW,241,3.0,19.0,78,0.00,,SKC,0.00,VWS V14.01,2013-03-13 14:55:00,
2013-03-13 11:00:00,26.4,20.8,30.22,WNW,302,8.0,12.0,79,0.00,,SKC,0.00,VWS V14.01,2013-03-13 15:00:00,
2013-03-13 11:05:00,26.3,21.6,30.22,West,280,6.0,12.0,82,0.00,,SKC,0.00,VWS V14.01,2013-03-13 15:05:00,
2013-03-13 11:11:00,26.4,22.2,30.22,West,281,3.0,12.0,84,0.00,,SKC,0.00,VWS V14.01,2013-03-13 15:11:00,
2013-03-13 11:16:00,26.6,22.4,30.23,WNW,295,6.0,14.0,84,0.00,,SKC,0.00,VWS V14.01,2013-03-13 15:16:00,
2013-03-13 11:21:00,26.6,21.9,30.23,WNW,287,7.0,14.0,82,0.00,,SKC,0.00,VWS V14.01,2013-03-13 15:21:00,
2013-03-13 11:26:00,27.5,21.9,30.23,West,265,3.0,15.0,79,0.00,,SKC,0.00,VWS V14.01,2013-03-13 15:26:00,
2013-03-13 11:31:00,28.4,21.5,30.24,WNW,295,4.0,4.0,75,0.00,,SKC,0.00,VWS V14.01,2013-03-13 15:31:00,
2013-03-13 11:36:00,28.1,20.6,30.24,WNW,295,9.0,19.0,73,0.00,,SKC,0.00,VWS V14.01,2013-03-13 15:36:00,
2013-03-13 11:41:00,27.0,20.8,30.24,West,275,5.0,19.0,77,0.00,,SKC,0.00,VWS V14.01,2013-03-13 15:41:00,
2013-03-13 11:47:00,27.2,21.9,30.24,WSW,255,4.0,19.0,80,0.00,,SKC,0.00,VWS V14.01,2013-03-13 15:47:00,
2013-03-13 11:52:00,27.3,22.0,30.24,WNW,284,3.0,19.0,80,0.00,,SKC,0.00,VWS V14.01,2013-03-13 15:52:00,
2013-03-13 11:57:00,27.3,21.7,30.24,WNW,296,12.0,19.0,79,0.00,,SKC,0.00,VWS V14.01,2013-03-13 15:57:00,
2013-03-13 12:02:00,26.7,21.1,30.25,West,277,3.0,17.0,79,0.00,,SKC,0.00,VWS V14.01,2013-03-13 16:02:00,
2013-03-13 12:07:00,26.0,20.4,30.25,WSW,250,4.0,18.0,79,0.00,,SKC,0.00,VWS V14.01,2013-03-13 16:07:00,
2013-03-13 12:12:00,25.1,19.5,30.25,West,275,3.0,18.0,79,0.00,,SKC,0.00,VWS V14.01,2013-03-13 16:12:00,
2013-03-13 12:17:00,25.1,18.3,30.26,West,276,11.0,18.0,75,0.00,,SKC,0.00,VWS V14.01,2013-03-13 16:17:00,
2013-03-13 12:22:00,25.7,17.9,30.26,WSW,241,12.0,18.0,72,0.00,,SKC,0.00,VWS V14.01,2013-03-13 16:22:00,
2013-03-13 12:27:00,26.7,17.6,30.26,WSW,255,2.0,18.0,68,0.00,,SKC,0.00,VWS V14.01,2013-03-13 16:27:00,
2013-03-13 12:32:00,27.9,18.0,30.26,NNW,329,3.0,6.0,66,0.00,,SKC,0.00,VWS V14.01,2013-03-13 16:32:00,
2013-03-13 12:37:00,28.7,17.7,30.26,WSW,239,9.0,11.0,63,0.00,,SKC,0.00,VWS V14.01,2013-03-13 16:37:00,
2013-03-13 12:42:00,29.1,17.3,30.26,WNW,291,3.0,13.0,61,0.00,,SKC,0.00,VWS V14.01,2013-03-13 16:42:00,
2013-03-13 12:47:00,28.7,15.4,30.26,WNW,283,13.0,20.0,57,0.00,,SKC,0.00,VWS V14.01,2013-03-13 16:47:00,
2013-03-13 12:52:00,29.1,15.0,30.26,WNW,302,5.0,20.0,55,0.00,,SKC,0.00,VWS V14.01,2013-03-13 16:52:00,
2013-03-13 12:57:00,29.3,14.3,30.26,WNW,290,12.0,20.0,53,0.00,,SKC,0.00,VWS V14.01,2013-03-13 16:57:00,
2013-03-13 13:02:00,29.5,15.3,30.27,West,271,11.0,25.0,55,0.00,,SKC,0.00,VWS V14.01,2013-03-13 17:02:00,
2013-03-13 13:08:00,29.5,14.5,30.27,WNW,293,8.0,25.0,53,0.00,,SKC,0.00,VWS V14.01,2013-03-13 17:08:00,
2013-03-13 13:13:00,29.5,14.5,30.27,West,262,6.0,25.0,53,0.00,,SKC,0.00,VWS V14.01,2013-03-13 17:13:00,
2013-03-13 13:18:00,29.0,13.6,30.27,West,262,11.0,25.0,52,0.00,,SKC,0.00,VWS V14.01,2013-03-13 17:18:00,
2013-03-13 13:23:00,29.8,16.0,30.27,WNW,289,7.0,25.0,56,0.00,,SKC,0.00,VWS V14.01,2013-03-13 17:23:00,
2013-03-13 13:28:00,30.0,15.0,30.27,NW,304,4.0,25.0,53,0.00,,SKC,0.00,VWS V14.01,2013-03-13 17:28:00,
2013-03-13 13:33:00,29.3,13.9,30.28,West,278,7.0,18.0,52,0.00,,SKC,0.00,VWS V14.01,2013-03-13 17:33:00,
2013-03-13 13:38:00,29.0,15.3,30.28,WNW,286,6.0,25.0,56,0.00,,SKC,0.00,VWS V14.01,2013-03-13 17:38:00,
2013-03-13 13:43:00,28.7,15.8,30.28,WNW,297,6.0,25.0,58,0.00,,SKC,0.00,VWS V14.01,2013-03-13 17:43:00,
2013-03-13 13:48:00,28.4,16.7,30.29,WNW,290,9.0,25.0,61,0.00,,SKC,0.00,VWS V14.01,2013-03-13 17:48:00,
2013-03-13 13:53:00,27.8,19.0,30.29,West,272,4.0,25.0,69,0.00,,SKC,0.00,VWS V14.01,2013-03-13 17:53:00,
2013-03-13 13:58:00,27.3,20.1,30.29,WNW,284,2.0,25.0,74,0.00,,SKC,0.00,VWS V14.01,2013-03-13 17:58:00,
2013-03-13 14:03:00,28.1,19.6,30.30,West,266,5.0,11.0,70,0.00,,SKC,0.00,VWS V14.01,2013-03-13 18:03:00,
2013-03-13 14:08:00,28.2,19.7,30.30,West,264,2.0,13.0,70,0.00,,SKC,0.00,VWS V14.01,2013-03-13 18:08:00,
2013-03-13 14:13:00,28.2,19.7,30.30,WNW,286,2.0,13.0,70,0.00,,SKC,0.00,VWS V14.01,2013-03-13 18:13:00,
2013-03-13 14:19:00,28.7,19.5,30.30,WNW,298,5.0,13.0,68,0.00,,SKC,0.00,VWS V14.01,2013-03-13 18:19:00,
2013-03-13 14:24:00,29.3,20.1,30.30,WNW,285,5.0,13.0,68,0.00,,SKC,0.00,VWS V14.01,2013-03-13 18:24:00,
2013-03-13 14:29:00,29.7,19.4,30.30,West,262,6.0,13.0,65,0.00,,SKC,0.00,VWS V14.01,2013-03-13 18:29:00,
2013-03-13 14:34:00,29.1,18.8,30.29,WNW,293,3.0,24.0,65,0.01,,SKC,0.01,VWS V14.01,2013-03-13 18:34:00,
2013-03-13 14:39:00,28.8,18.9,30.29,WNW,290,9.0,24.0,66,0.01,,SKC,0.01,VWS V14.01,2013-03-13 18:39:00,
2013-03-13 14:44:00,29.0,18.7,30.29,WSW,257,14.0,24.0,65,0.01,,SKC,0.01,VWS V14.01,2013-03-13 18:44:00,
2013-03-13 14:49:00,29.4,18.4,30.30,WNW,289,9.0,24.0,63,0.01,,SKC,0.01,VWS V14.01,2013-03-13 18:49:00,
2013-03-13 14:54:00,29.4,18.0,30.30,WSW,252,9.0,24.0,62,0.01,,SKC,0.01,VWS V14.01,2013-03-13 18:54:00,
2013-03-13 14:59:00,29.4,17.6,30.30,WNW,302,3.0,24.0,61,0.01,,SKC,0.01,VWS V14.01,2013-03-13 18:59:00,
2013-03-13 15:04:00,29.4,17.6,30.30,WNW,283,4.0,17.0,61,0.01,,SKC,0.01,VWS V14.01,2013-03-13 19:04:00,
2013-03-13 15:09:00,29.8,19.1,30.30,West,267,3.0,19.0,64,0.01,,SKC,0.01,VWS V14.01,2013-03-13 19:09:00,
2013-03-13 15:14:00,29.7,18.3,30.30,WSW,255,3.0,19.0,62,0.01,,SKC,0.01,VWS V14.01,2013-03-13 19:14:00,
2013-03-13 15:19:00,29.3,19.4,30.30,WNW,284,15.0,19.0,66,0.01,,SKC,0.01,VWS V14.01,2013-03-13 19:19:00,
2013-03-13 15:24:00,29.0,20.1,30.30,WNW,292,5.0,19.0,69,0.01,,SKC,0.01,VWS V14.01,2013-03-13 19:24:00,
2013-03-13 15:29:00,29.0,20.8,30.31,SW,226,10.0,19.0,71,0.01,,SKC,0.01,VWS V14.01,2013-03-13 19:29:00,
2013-03-13 15:35:00,29.1,20.2,30.31,SW,236,6.0,13.0,69,0.01,,SKC,0.01,VWS V14.01,2013-03-13 19:35:00,
2013-03-13 15:40:00,29.0,20.1,30.31,West,262,9.0,18.0,69,0.01,,SKC,0.01,VWS V14.01,2013-03-13 19:40:00,
2013-03-13 15:45:00,28.8,19.9,30.31,WNW,290,5.0,18.0,69,0.01,,SKC,0.01,VWS V14.01,2013-03-13 19:45:00,
2013-03-13 15:50:00,29.0,20.5,30.31,WNW,290,2.0,18.0,70,0.01,,SKC,0.01,VWS V14.01,2013-03-13 19:50:00,
2013-03-13 15:55:00,29.3,20.7,30.31,WSW,250,6.0,18.0,70,0.01,,SKC,0.01,VWS V14.01,2013-03-13 19:55:00,
2013-03-13 16:00:00,29.4,20.2,30.31,WSW,240,7.0,18.0,68,0.01,,SKC,0.01,VWS V14.01,2013-03-13 20:00:00,
2013-03-13 16:05:00,29.4,19.1,30.31,WSW,258,5.0,18.0,65,0.00,,SKC,0.01,VWS V14.01,2013-03-13 20:05:00,
2013-03-13 16:10:00,29.4,18.7,30.31,West,266,4.0,18.0,64,0.00,,SKC,0.01,VWS V14.01,2013-03-13 20:10:00,
2013-03-13 16:15:00,29.3,18.6,30.31,NW,321,12.0,18.0,64,0.00,,SKC,0.01,VWS V14.01,2013-03-13 20:15:00,
2013-03-13 16:20:00,29.1,19.2,30.31,WSW,242,4.0,22.0,66,0.00,,SKC,0.01,VWS V14.01,2013-03-13 20:20:00,
2013-03-13 16:25:00,29.1,19.9,30.31,WNW,297,6.0,22.0,68,0.00,,SKC,0.01,VWS V14.01,2013-03-13 20:25:00,
2013-03-13 16:30:00,29.1,18.1,30.31,WNW,288,6.0,16.0,63,0.00,,SKC,0.01,VWS V14.01,2013-03-13 20:30:00,
2013-03-13 16:35:00,29.3,17.9,30.31,NW,319,6.0,16.0,62,0.00,,SKC,0.01,VWS V14.01,2013-03-13 20:35:00,
2013-03-13 16:41:00,29.4,18.4,30.31,WNW,300,4.0,16.0,63,0.00,,SKC,0.01,VWS V14.01,2013-03-13 20:41:00,
2013-03-13 16:46:00,30.3,20.0,30.32,West,271,22.0,22.0,65,0.00,,SKC,0.01,VWS V14.01,2013-03-13 20:46:00,
2013-03-13 16:51:00,30.0,19.0,30.32,West,262,3.0,22.0,63,0.00,,SKC,0.01,VWS V14.01,2013-03-13 20:51:00,
2013-03-13 16:56:00,30.0,20.0,30.32,West,259,11.0,22.0,66,0.00,,SKC,0.01,VWS V14.01,2013-03-13 20:56:00,
2013-03-13 17:01:00,30.3,20.0,30.32,WNW,290,2.0,7.0,65,0.00,,SKC,0.01,VWS V14.01,2013-03-13 21:01:00,
2013-03-13 17:06:00,29.8,19.5,30.32,West,278,5.0,14.0,65,0.00,,SKC,0.01,VWS V14.01,2013-03-13 21:06:00,
2013-03-13 17:11:00,30.0,20.4,30.32,West,275,6.0,15.0,67,0.00,,SKC,0.01,VWS V14.01,2013-03-13 21:11:00,
2013-03-13 17:16:00,30.1,20.8,30.33,WSW,245,7.0,15.0,68,0.00,,SKC,0.01,VWS V14.01,2013-03-13 21:16:00,
2013-03-13 17:21:00,29.7,20.5,30.33,West,276,3.0,15.0,68,0.00,,SKC,0.01,VWS V14.01,2013-03-13 21:21:00,
2013-03-13 17:26:00,29.7,20.1,30.33,West,267,3.0,17.0,67,0.00,,SKC,0.01,VWS V14.01,2013-03-13 21:26:00,
2013-03-13 17:31:00,29.8,19.5,30.33,WNW,303,6.0,27.0,65,0.00,,SKC,0.01,VWS V14.01,2013-03-13 21:31:00,
2013-03-13 17:36:00,29.7,19.0,30.33,West,276,6.0,27.0,64,0.00,,SKC,0.01,VWS V14.01,2013-03-13 21:36:00,
2013-03-13 17:41:00,29.5,19.2,30.33,West,264,4.0,27.0,65,0.00,,SKC,0.01,VWS V14.01,2013-03-13 21:41:00,
2013-03-13 17:47:00,29.7,19.4,30.34,WNW,299,2.0,27.0,65,0.00,,SKC,0.01,VWS V14.01,2013-03-13 21:47:00,
2013-03-13 17:52:00,29.8,19.5,30.34,West,275,2.0,27.0,65,0.00,,SKC,0.01,VWS V14.01,2013-03-13 21:52:00,
2013-03-13 17:57:00,29.8,18.8,30.34,West,276,4.0,27.0,63,0.00,,SKC,0.01,VWS V14.01,2013-03-13 21:57:00,
2013-03-13 18:02:00,30.0,19.0,30.34,WNW,288,10.0,14.0,63,0.00,,SKC,0.01,VWS V14.01,2013-03-13 22:02:00,
2013-03-13 18:07:00,30.0,18.2,30.34,WNW,297,3.0,18.0,61,0.00,,SKC,0.01,VWS V14.01,2013-03-13 22:07:00,
2013-03-13 18:12:00,30.3,18.5,30.34,WNW,302,4.0,18.0,61,0.00,,SKC,0.01,VWS V14.01,2013-03-13 22:12:00,
2013-03-13 18:17:00,30.9,19.0,30.34,West,274,3.0,18.0,61,0.00,,SKC,0.01,VWS V14.01,2013-03-13 22:17:00,
2013-03-13 18:22:00,30.6,18.4,30.34,West,278,7.0,18.0,60,0.00,,SKC,0.01,VWS V14.01,2013-03-13 22:22:00,
2013-03-13 18:27:00,30.3,18.5,30.34,WNW,288,7.0,18.0,61,0.00,,SKC,0.01,VWS V14.01,2013-03-13 22:27:00,
2013-03-13 18:32:00,30.1,17.5,30.34,West,276,2.0,13.0,59,0.00,,SKC,0.01,VWS V14.01,2013-03-13 22:32:00,
2013-03-13 18:37:00,30.1,17.9,30.34,West,273,2.0,17.0,60,0.00,,SKC,0.01,VWS V14.01,2013-03-13 22:37:00,
2013-03-13 18:42:00,30.3,17.7,30.34,West,264,3.0,17.0,59,0.00,,SKC,0.01,VWS V14.01,2013-03-13 22:42:00,
2013-03-13 18:47:00,30.3,17.3,30.34,WNW,293,5.0,18.0,58,0.00,,SKC,0.01,VWS V14.01,2013-03-13 22:47:00,
2013-03-13 18:52:00,30.3,17.3,30.34,SW,236,2.0,18.0,58,0.00,,SKC,0.01,VWS V14.01,2013-03-13 22:52:00,
2013-03-13 18:57:00,30.3,17.3,30.34,West,266,2.0,18.0,58,0.00,,SKC,0.01,VWS V14.01,2013-03-13 22:57:00,
2013-03-13 19:02:00,30.3,17.3,30.34,NW,322,5.0,14.0,58,0.00,,SKC,0.01,VWS V14.01,2013-03-13 23:02:00,
2013-03-13 19:07:00,30.1,17.1,30.34,West,267,2.0,14.0,58,0.00,,SKC,0.01,VWS V14.01,2013-03-13 23:07:00,
2013-03-13 19:13:00,30.1,17.1,30.34,WNW,299,2.0,14.0,58,0.00,,SKC,0.01,VWS V14.01,2013-03-13 23:13:00,
2013-03-13 19:18:00,30.1,16.7,30.35,West,279,2.0,14.0,57,0.00,,SKC,0.01,VWS V14.01,2013-03-13 23:18:00,
2013-03-13 19:23:00,30.1,16.7,30.35,WNW,287,1.0,14.0,57,0.00,,SKC,0.01,VWS V14.01,2013-03-13 23:23:00,
2013-03-13 19:28:00,30.1,17.1,30.35,WSW,255,0.0,14.0,58,0.00,,SKC,0.01,VWS V14.01,2013-03-13 23:28:00,
2013-03-13 19:33:00,30.1,17.1,30.35,West,281,2.0,11.0,58,0.00,,SKC,0.01,VWS V14.01,2013-03-13 23:33:00,
2013-03-13 19:38:00,30.1,17.1,30.35,West,269,6.0,12.0,58,0.00,,SKC,0.01,VWS V14.01,2013-03-13 23:38:00,
2013-03-13 19:43:00,30.1,17.1,30.35,SW,224,5.0,13.0,58,0.00,,SKC,0.01,VWS V14.01,2013-03-13 23:43:00,
2013-03-13 19:48:00,30.1,17.1,30.35,NW,307,1.0,13.0,58,0.00,,SKC,0.01,VWS V14.01,2013-03-13 23:48:00,
2013-03-13 19:53:00,30.1,17.1,30.35,NNW,332,3.0,13.0,58,0.00,,SKC,0.01,VWS V14.01,2013-03-13 23:53:00,
2013-03-13 19:58:00,30.0,17.0,30.35,West,259,2.0,13.0,58,0.00,,SKC,0.01,VWS V14.01,2013-03-13 23:58:00,
2013-03-13 20:03:00,30.0,17.4,30.35,West,275,0.0,7.0,59,0.00,,SKC,0.01,VWS V14.01,2013-03-14 00:03:00,
2013-03-13 20:08:00,30.0,17.4,30.35,WNW,299,1.0,7.0,59,0.00,,SKC,0.01,VWS V14.01,2013-03-14 00:08:00,
2013-03-13 20:13:00,30.0,17.4,30.35,West,261,1.0,8.0,59,0.00,,SKC,0.01,VWS V14.01,2013-03-14 00:13:00,
2013-03-13 20:18:00,29.8,17.2,30.35,West,279,4.0,8.0,59,0.00,,SKC,0.01,VWS V14.01,2013-03-14 00:18:00,
2013-03-13 20:23:00,29.8,17.2,30.35,West,270,1.0,9.0,59,0.00,,SKC,0.01,VWS V14.01,2013-03-14 00:23:00,
2013-03-13 20:28:00,29.8,17.6,30.35,West,276,0.0,9.0,60,0.00,,SKC,0.01,VWS V14.01,2013-03-14 00:28:00,
2013-03-13 20:34:00,29.7,17.5,30.35,SW,221,3.0,6.0,60,0.00,,SKC,0.01,VWS V14.01,2013-03-14 00:34:00,
2013-03-13 20:39:00,29.7,17.5,30.35,West,264,2.0,6.0,60,0.00,,SKC,0.01,VWS V14.01,2013-03-14 00:39:00,
2013-03-13 20:44:00,29.7,17.5,30.35,WSW,245,3.0,7.0,60,0.00,,SKC,0.01,VWS V14.01,2013-03-14 00:44:00,
2013-03-13 20:49:00,29.5,17.7,30.36,West,261,0.0,8.0,61,0.00,,SKC,0.01,VWS V14.01,2013-03-14 00:49:00,
2013-03-13 20:54:00,29.5,17.7,30.36,West,269,5.0,9.0,61,0.00,,SKC,0.01,VWS V14.01,2013-03-14 00:54:00,
2013-03-13 20:59:00,29.5,17.3,30.36,WSW,244,2.0,9.0,60,0.00,,SKC,0.01,VWS V14.01,2013-03-14 00:59:00,
2013-03-13 21:04:00,29.4,17.6,30.36,WNW,285,3.0,8.0,61,0.00,,SKC,0.01,VWS V14.01,2013-03-14 01:04:00,
2013-03-13 21:09:00,29.4,17.2,30.36,WSW,243,3.0,14.0,60,0.00,,SKC,0.01,VWS V14.01,2013-03-14 01:09:00,
2013-03-13 21:14:00,29.4,17.6,30.36,West,268,1.0,14.0,61,0.00,,SKC,0.01,VWS V14.01,2013-03-14 01:14:00,
2013-03-13 21:19:00,29.4,17.6,30.37,West,278,3.0,14.0,61,0.00,,SKC,0.01,VWS V14.01,2013-03-14 01:19:00,
2013-03-13 21:24:00,29.3,17.1,30.37,West,278,1.0,14.0,60,0.00,,SKC,0.01,VWS V14.01,2013-03-14 01:24:00,
2013-03-13 21:29:00,29.3,17.5,30.37,West,268,2.0,14.0,61,0.00,,SKC,0.01,VWS V14.01,2013-03-14 01:29:00,
2013-03-13 21:34:00,29.3,17.5,30.37,West,261,3.0,6.0,61,0.00,,SKC,0.01,VWS V14.01,2013-03-14 01:34:00,
2013-03-13 21:39:00,29.1,17.0,30.37,West,273,5.0,10.0,60,0.00,,SKC,0.01,VWS V14.01,2013-03-14 01:39:00,
2013-03-13 21:44:00,29.1,17.0,30.37,WNW,283,1.0,10.0,60,0.00,,SKC,0.01,VWS V14.01,2013-03-14 01:44:00,
2013-03-13 21:50:00,29.1,17.3,30.37,WNW,292,3.0,10.0,61,0.00,,SKC,0.01,VWS V14.01,2013-03-14 01:50:00,
2013-03-13 21:55:00,29.0,16.9,30.37,West,277,1.0,10.0,60,0.00,,SKC,0.01,VWS V14.01,2013-03-14 01:55:00,
2013-03-13 22:00:00,29.0,17.2,30.37,West,265,1.0,10.0,61,0.00,,SKC,0.01,VWS V14.01,2013-03-14 02:00:00,
2013-03-13 22:05:00,28.8,17.1,30.37,West,280,2.0,6.0,61,0.00,,SKC,0.01,VWS V14.01,2013-03-14 02:05:00,
2013-03-13 22:10:00,28.8,17.1,30.37,West,262,2.0,6.0,61,0.00,,SKC,0.01,VWS V14.01,2013-03-14 02:10:00,
2013-03-13 22:15:00,28.8,17.4,30.37,West,279,2.0,7.0,62,0.00,,SKC,0.01,VWS V14.01,2013-03-14 02:15:00,
2013-03-13 22:20:00,28.7,17.3,30.37,NW,320,0.0,7.0,62,0.00,,SKC,0.01,VWS V14.01,2013-03-14 02:20:00,
2013-03-13 22:25:00,28.7,17.3,30.37,West,273,1.0,7.0,62,0.00,,SKC,0.01,VWS V14.01,2013-03-14 02:25:00,
2013-03-13 22:30:00,28.5,17.5,30.38,West,278,8.0,8.0,63,0.00,,SKC,0.01,VWS V14.01,2013-03-14 02:30:00,
2013-03-13 22:35:00,28.5,17.1,30.38,West,279,4.0,10.0,62,0.00,,SKC,0.01,VWS V14.01,2013-03-14 02:35:00,
2013-03-13 22:40:00,28.4,17.1,30.38,West,264,0.0,10.0,62,0.00,,SKC,0.01,VWS V14.01,2013-03-14 02:40:00,
2013-03-13 22:46:00,28.4,17.1,30.38,West,274,2.0,10.0,62,0.00,,SKC,0.01,VWS V14.01,2013-03-14 02:46:00,
2013-03-13 22:51:00,28.4,17.1,30.38,WNW,289,2.0,10.0,62,0.00,,SKC,0.01,VWS V14.01,2013-03-14 02:51:00,
2013-03-13 22:56:00,28.2,17.2,30.38,West,266,0.0,10.0,63,0.00,,SKC,0.01,VWS V14.01,2013-03-14 02:56:00,
2013-03-13 23:01:00,28.2,16.9,30.38,West,264,2.0,12.0,62,0.00,,SKC,0.01,VWS V14.01,2013-03-14 03:01:00,
2013-03-13 23:06:00,28.2,16.9,30.38,West,271,7.0,12.0,62,0.00,,SKC,0.01,VWS V14.01,2013-03-14 03:06:00,
2013-03-13 23:11:00,28.2,16.9,30.38,West,268,5.0,12.0,62,0.00,,SKC,0.01,VWS V14.01,2013-03-14 03:11:00,
2013-03-13 23:16:00,28.1,16.8,30.39,WSW,243,2.0,12.0,62,0.00,,SKC,0.01,VWS V14.01,2013-03-14 03:16:00,
2013-03-13 23:21:00,28.1,16.8,30.39,West,271,0.0,12.0,62,0.00,,SKC,0.01,VWS V14.01,2013-03-14 03:21:00,
2013-03-13 23:27:00,27.9,17.0,30.39,West,269,1.0,12.0,63,0.00,,SKC,0.01,VWS V14.01,2013-03-14 03:27:00,
2013-03-13 23:32:00,27.9,16.6,30.39,WSW,250,2.0,5.0,62,0.00,,SKC,0.01,VWS V14.01,2013-03-14 03:32:00,
2013-03-13 23:37:00,27.9,17.0,30.39,WNW,287,1.0,5.0,63,0.00,,SKC,0.01,VWS V14.01,2013-03-14 03:37:00,
2013-03-13 23:42:00,27.8,16.5,30.39,West,278,2.0,7.0,62,0.00,,SKC,0.01,VWS V14.01,2013-03-14 03:42:00,
2013-03-13 23:47:00,27.8,16.9,30.39,West,281,2.0,7.0,63,0.00,,SKC,0.01,VWS V14.01,2013-03-14 03:47:00,
2013-03-13 23:52:00,27.6,16.7,30.39,West,281,0.0,7.0,63,0.00,,SKC,0.01,VWS V14.01,2013-03-14 03:52:00,
2013-03-13 23:57:00,27.6,16.7,30.39,West,280,1.0,9.0,63,0.00,,SKC,0.01,VWS V14.01,2013-03-14 03:57:00,